sensor_id;sensor_type;location;lat;lon;timestamp;temperature;humidity
54158;DHT22;40065;49.894;10.358;2022-12-18T00:00:21;-8.20;99.90
54158;DHT22;40065;49.894;10.358;2022-12-18T00:05:23;-8.30;99.90
54158;DHT22;40065;49.894;10.358;2022-12-18T00:10:25;-8.30;99.90
54158;DHT22;40065;49.894;10.358;2022-12-18T00:15:26;-8.40;99.90
54158;DHT22;40065;49.894;10.358;2022-12-18T00:20:28;-8.40;99.90
54158;DHT22;40065;49.894;10.358;2022-12-18T00:25:35;-8.50;99.90
54158;DHT22;40065;49.894;10.358;2022-12-18T00:30:37;-8.50;99.90
54158;DHT22;40065;49.894;10.358;2022-12-18T00:35:39;-8.40;99.90
54158;DHT22;40065;49.894;10.358;2022-12-18T00:40:41;-8.40;99.90
54158;DHT22;40065;49.894;10.358;2022-12-18T00:45:42;-8.40;99.90
54158;DHT22;40065;49.894;10.358;2022-12-18T00:50:47;-8.50;99.90
54158;DHT22;40065;49.894;10.358;2022-12-18T00:55:49;-8.40;99.90
54158;DHT22;40065;49.894;10.358;2022-12-18T01:00:51;-8.40;99.90
54158;DHT22;40065;49.894;10.358;2022-12-18T01:05:53;-8.30;99.90
54158;DHT22;40065;49.894;10.358;2022-12-18T01:10:55;-8.40;99.90
54158;DHT22;40065;49.894;10.358;2022-12-18T01:15:56;-8.40;99.90
54158;DHT22;40065;49.894;10.358;2022-12-18T01:20:59;-8.40;99.90
54158;DHT22;40065;49.894;10.358;2022-12-18T01:26:08;-8.50;99.90
54158;DHT22;40065;49.894;10.358;2022-12-18T01:31:16;-8.60;99.90
54158;DHT22;40065;49.894;10.358;2022-12-18T01:36:19;-8.60;99.90
54158;DHT22;40065;49.894;10.358;2022-12-18T01:41:24;-8.60;99.90
54158;DHT22;40065;49.894;10.358;2022-12-18T01:46:27;-8.60;99.90
54158;DHT22;40065;49.894;10.358;2022-12-18T01:51:30;-8.50;99.90
54158;DHT22;40065;49.894;10.358;2022-12-18T01:56:32;-8.30;99.90
54158;DHT22;40065;49.894;10.358;2022-12-18T02:01:34;-8.20;99.90
54158;DHT22;40065;49.894;10.358;2022-12-18T02:06:40;-8.30;99.90
54158;DHT22;40065;49.894;10.358;2022-12-18T02:11:54;-8.30;99.90
54158;DHT22;40065;49.894;10.358;2022-12-18T02:17:10;-8.50;99.90
54158;DHT22;40065;49.894;10.358;2022-12-18T02:27:34;-8.60;99.90
54158;DHT22;40065;49.894;10.358;2022-12-18T02:32:41;-8.70;99.90
54158;DHT22;40065;49.894;10.358;2022-12-18T02:37:45;-8.70;99.90
54158;DHT22;40065;49.894;10.358;2022-12-18T02:42:48;-8.60;99.90
54158;DHT22;40065;49.894;10.358;2022-12-18T02:47:52;-8.60;99.90
54158;DHT22;40065;49.894;10.358;2022-12-18T02:53:48;-8.70;99.90
54158;DHT22;40065;49.894;10.358;2022-12-18T03:04:16;-9.10;99.90
54158;DHT22;40065;49.894;10.358;2022-12-18T03:09:31;-9.10;99.90
54158;DHT22;40065;49.894;10.358;2022-12-18T03:14:37;-9.00;99.90
54158;DHT22;40065;49.894;10.358;2022-12-18T03:19:41;-9.00;99.90
54158;DHT22;40065;49.894;10.358;2022-12-18T03:24:45;-9.00;99.90
54158;DHT22;40065;49.894;10.358;2022-12-18T03:29:50;-9.10;99.90
54158;DHT22;40065;49.894;10.358;2022-12-18T03:35:03;-9.40;99.90
54158;DHT22;40065;49.894;10.358;2022-12-18T03:40:09;-9.50;99.90
54158;DHT22;40065;49.894;10.358;2022-12-18T03:50:31;-9.60;99.90
54158;DHT22;40065;49.894;10.358;2022-12-18T03:55:35;-9.60;99.90
54158;DHT22;40065;49.894;10.358;2022-12-18T04:00:40;-9.60;99.90
54158;DHT22;40065;49.894;10.358;2022-12-18T04:05:44;-9.30;99.90
54158;DHT22;40065;49.894;10.358;2022-12-18T04:10:48;-9.40;99.90
54158;DHT22;40065;49.894;10.358;2022-12-18T04:15:50;-9.20;99.90
54158;DHT22;40065;49.894;10.358;2022-12-18T04:20:55;-9.20;99.90
54158;DHT22;40065;49.894;10.358;2022-12-18T04:25:57;-9.30;99.90
54158;DHT22;40065;49.894;10.358;2022-12-18T04:31:28;-9.30;99.90
54158;DHT22;40065;49.894;10.358;2022-12-18T04:36:30;-9.30;99.90
54158;DHT22;40065;49.894;10.358;2022-12-18T04:41:32;-9.30;99.90
54158;DHT22;40065;49.894;10.358;2022-12-18T04:46:34;-9.20;99.90
54158;DHT22;40065;49.894;10.358;2022-12-18T04:51:37;-9.20;99.90
54158;DHT22;40065;49.894;10.358;2022-12-18T04:56:39;-9.30;99.90
54158;DHT22;40065;49.894;10.358;2022-12-18T05:01:41;-9.00;99.90
54158;DHT22;40065;49.894;10.358;2022-12-18T05:06:43;-8.60;99.90
54158;DHT22;40065;49.894;10.358;2022-12-18T05:11:45;-8.10;99.90
54158;DHT22;40065;49.894;10.358;2022-12-18T05:16:48;-8.00;99.90
54158;DHT22;40065;49.894;10.358;2022-12-18T05:21:49;-8.00;99.90
54158;DHT22;40065;49.894;10.358;2022-12-18T05:26:51;-8.20;99.90
54158;DHT22;40065;49.894;10.358;2022-12-18T05:31:53;-7.80;99.90
54158;DHT22;40065;49.894;10.358;2022-12-18T05:36:55;-7.50;99.90
54158;DHT22;40065;49.894;10.358;2022-12-18T05:41:56;-7.70;99.90
54158;DHT22;40065;49.894;10.358;2022-12-18T05:46:58;-7.90;99.90
54158;DHT22;40065;49.894;10.358;2022-12-18T05:52:00;-8.00;99.90
54158;DHT22;40065;49.894;10.358;2022-12-18T05:57:02;-8.20;99.90
54158;DHT22;40065;49.894;10.358;2022-12-18T06:02:04;-8.20;99.90
54158;DHT22;40065;49.894;10.358;2022-12-18T06:07:06;-8.20;99.90
54158;DHT22;40065;49.894;10.358;2022-12-18T06:12:07;-7.80;99.90
54158;DHT22;40065;49.894;10.358;2022-12-18T06:17:09;-7.70;99.90
54158;DHT22;40065;49.894;10.358;2022-12-18T06:22:11;-7.50;99.90
54158;DHT22;40065;49.894;10.358;2022-12-18T06:27:13;-7.40;99.90
54158;DHT22;40065;49.894;10.358;2022-12-18T06:32:15;-7.40;99.90
54158;DHT22;40065;49.894;10.358;2022-12-18T06:37:16;-7.20;99.90
54158;DHT22;40065;49.894;10.358;2022-12-18T06:42:18;-7.20;99.90
54158;DHT22;40065;49.894;10.358;2022-12-18T06:47:20;-7.10;99.90
54158;DHT22;40065;49.894;10.358;2022-12-18T06:52:22;-7.00;99.90
54158;DHT22;40065;49.894;10.358;2022-12-18T06:57:23;-6.70;99.90
54158;DHT22;40065;49.894;10.358;2022-12-18T07:02:25;-6.50;99.90
54158;DHT22;40065;49.894;10.358;2022-12-18T07:07:27;-6.40;99.90
54158;DHT22;40065;49.894;10.358;2022-12-18T07:12:29;-6.40;99.90
54158;DHT22;40065;49.894;10.358;2022-12-18T07:17:30;-6.40;99.90
54158;DHT22;40065;49.894;10.358;2022-12-18T07:22:32;-6.20;99.90
54158;DHT22;40065;49.894;10.358;2022-12-18T07:27:34;-6.00;99.90
54158;DHT22;40065;49.894;10.358;2022-12-18T07:32:36;-6.10;99.90
54158;DHT22;40065;49.894;10.358;2022-12-18T07:37:38;-5.80;99.90
54158;DHT22;40065;49.894;10.358;2022-12-18T07:42:39;-5.50;99.90
54158;DHT22;40065;49.894;10.358;2022-12-18T07:47:41;-5.60;99.90
54158;DHT22;40065;49.894;10.358;2022-12-18T07:52:43;-5.40;99.90
54158;DHT22;40065;49.894;10.358;2022-12-18T07:57:44;-5.40;99.90
54158;DHT22;40065;49.894;10.358;2022-12-18T08:02:53;-5.20;99.90
54158;DHT22;40065;49.894;10.358;2022-12-18T08:07:55;-5.10;99.90
54158;DHT22;40065;49.894;10.358;2022-12-18T08:12:57;-5.00;99.90
54158;DHT22;40065;49.894;10.358;2022-12-18T08:18:05;-4.90;99.90
54158;DHT22;40065;49.894;10.358;2022-12-18T08:23:14;-4.80;99.90
54158;DHT22;40065;49.894;10.358;2022-12-18T08:28:16;-4.70;99.90
54158;DHT22;40065;49.894;10.358;2022-12-18T08:33:18;-4.60;99.90
54158;DHT22;40065;49.894;10.358;2022-12-18T08:38:19;-4.60;99.90
54158;DHT22;40065;49.894;10.358;2022-12-18T08:43:21;-4.40;99.90
54158;DHT22;40065;49.894;10.358;2022-12-18T08:48:42;-4.10;99.90
54158;DHT22;40065;49.894;10.358;2022-12-18T08:53:44;-4.10;99.90
54158;DHT22;40065;49.894;10.358;2022-12-18T08:58:46;-4.00;99.90
54158;DHT22;40065;49.894;10.358;2022-12-18T09:03:49;-3.90;99.90
54158;DHT22;40065;49.894;10.358;2022-12-18T09:08:51;-3.80;99.90
54158;DHT22;40065;49.894;10.358;2022-12-18T09:13:53;-3.70;99.90
54158;DHT22;40065;49.894;10.358;2022-12-18T09:18:56;-3.90;99.90
54158;DHT22;40065;49.894;10.358;2022-12-18T09:24:01;-3.70;99.90
54158;DHT22;40065;49.894;10.358;2022-12-18T09:29:03;-3.50;99.90
54158;DHT22;40065;49.894;10.358;2022-12-18T09:34:05;-3.20;99.90
54158;DHT22;40065;49.894;10.358;2022-12-18T09:39:07;-3.20;99.90
54158;DHT22;40065;49.894;10.358;2022-12-18T09:44:21;-3.00;99.90
54158;DHT22;40065;49.894;10.358;2022-12-18T09:49:27;-3.10;99.90
54158;DHT22;40065;49.894;10.358;2022-12-18T09:54:38;-3.00;99.90
54158;DHT22;40065;49.894;10.358;2022-12-18T09:59:42;-2.80;99.90
54158;DHT22;40065;49.894;10.358;2022-12-18T10:10:03;-2.70;99.90
54158;DHT22;40065;49.894;10.358;2022-12-18T10:26:00;-2.40;99.90
54158;DHT22;40065;49.894;10.358;2022-12-18T10:31:06;-2.30;99.90
54158;DHT22;40065;49.894;10.358;2022-12-18T10:36:08;-1.90;99.90
54158;DHT22;40065;49.894;10.358;2022-12-18T10:46:22;-2.30;99.90
54158;DHT22;40065;49.894;10.358;2022-12-18T10:51:30;-2.00;99.90
54158;DHT22;40065;49.894;10.358;2022-12-18T10:56:34;-2.00;99.90
54158;DHT22;40065;49.894;10.358;2022-12-18T11:01:54;-1.50;99.90
54158;DHT22;40065;49.894;10.358;2022-12-18T11:07:07;-1.60;99.90
54158;DHT22;40065;49.894;10.358;2022-12-18T11:12:19;-1.30;99.90
54158;DHT22;40065;49.894;10.358;2022-12-18T11:17:35;-1.20;99.90
54158;DHT22;40065;49.894;10.358;2022-12-18T11:22:37;-1.70;99.90
54158;DHT22;40065;49.894;10.358;2022-12-18T11:27:40;-1.50;99.90
54158;DHT22;40065;49.894;10.358;2022-12-18T11:32:47;-0.90;99.90
54158;DHT22;40065;49.894;10.358;2022-12-18T11:38:20;-0.70;99.90
54158;DHT22;40065;49.894;10.358;2022-12-18T11:48:49;-0.80;99.90
54158;DHT22;40065;49.894;10.358;2022-12-18T11:53:53;-1.30;99.90
54158;DHT22;40065;49.894;10.358;2022-12-18T11:59:15;-0.90;99.90
54158;DHT22;40065;49.894;10.358;2022-12-18T12:15:29;-0.50;99.90
54158;DHT22;40065;49.894;10.358;2022-12-18T12:26:06;-0.40;99.90
54158;DHT22;40065;49.894;10.358;2022-12-18T12:31:34;-0.30;99.90
54158;DHT22;40065;49.894;10.358;2022-12-18T12:41:43;0.00;99.90
54158;DHT22;40065;49.894;10.358;2022-12-18T12:47:14;0.40;99.90
54158;DHT22;40065;49.894;10.358;2022-12-18T12:52:50;0.40;99.90
54158;DHT22;40065;49.894;10.358;2022-12-18T12:58:19;0.00;99.90
54158;DHT22;40065;49.894;10.358;2022-12-18T13:08:55;0.20;99.90
54158;DHT22;40065;49.894;10.358;2022-12-18T13:13:57;0.50;99.90
54158;DHT22;40065;49.894;10.358;2022-12-18T13:19:00;0.40;99.90
54158;DHT22;40065;49.894;10.358;2022-12-18T13:24:34;-0.10;99.90
54158;DHT22;40065;49.894;10.358;2022-12-18T13:29:45;-0.30;99.90
54158;DHT22;40065;49.894;10.358;2022-12-18T13:34:48;-0.30;99.90
54158;DHT22;40065;49.894;10.358;2022-12-18T13:39:50;0.00;99.90
54158;DHT22;40065;49.894;10.358;2022-12-18T13:44:51;-0.10;99.90
54158;DHT22;40065;49.894;10.358;2022-12-18T13:49:53;-0.60;99.90
54158;DHT22;40065;49.894;10.358;2022-12-18T13:54:57;-0.50;99.90
54158;DHT22;40065;49.894;10.358;2022-12-18T14:10:28;-0.80;99.90
54158;DHT22;40065;49.894;10.358;2022-12-18T14:15:50;-0.80;99.90
54158;DHT22;40065;49.894;10.358;2022-12-18T14:20:55;-1.00;99.90
54158;DHT22;40065;49.894;10.358;2022-12-18T14:25:59;-0.90;99.90
54158;DHT22;40065;49.894;10.358;2022-12-18T14:31:17;-1.10;99.90
54158;DHT22;40065;49.894;10.358;2022-12-18T14:36:22;-1.10;99.90
54158;DHT22;40065;49.894;10.358;2022-12-18T14:41:25;-1.30;99.90
54158;DHT22;40065;49.894;10.358;2022-12-18T14:46:35;-1.40;99.90
54158;DHT22;40065;49.894;10.358;2022-12-18T14:51:38;-1.50;99.90
54158;DHT22;40065;49.894;10.358;2022-12-18T15:02:18;-1.80;99.90
54158;DHT22;40065;49.894;10.358;2022-12-18T15:07:23;-2.10;99.90
54158;DHT22;40065;49.894;10.358;2022-12-18T15:12:35;-2.30;99.90
54158;DHT22;40065;49.894;10.358;2022-12-18T15:17:38;-2.40;99.90
54158;DHT22;40065;49.894;10.358;2022-12-18T15:22:39;-2.40;99.90
54158;DHT22;40065;49.894;10.358;2022-12-18T15:27:46;-2.50;99.90
54158;DHT22;40065;49.894;10.358;2022-12-18T15:32:50;-2.60;99.90
54158;DHT22;40065;49.894;10.358;2022-12-18T15:37:52;-2.60;99.90
54158;DHT22;40065;49.894;10.358;2022-12-18T15:42:55;-2.70;99.90
54158;DHT22;40065;49.894;10.358;2022-12-18T15:48:21;-2.70;99.90
54158;DHT22;40065;49.894;10.358;2022-12-18T15:53:24;-2.80;99.90
54158;DHT22;40065;49.894;10.358;2022-12-18T15:58:26;-2.90;99.90
54158;DHT22;40065;49.894;10.358;2022-12-18T16:03:28;-2.90;99.90
54158;DHT22;40065;49.894;10.358;2022-12-18T16:08:31;-3.00;99.90
54158;DHT22;40065;49.894;10.358;2022-12-18T16:13:33;-2.90;99.90
54158;DHT22;40065;49.894;10.358;2022-12-18T16:18:35;-2.70;99.90
54158;DHT22;40065;49.894;10.358;2022-12-18T16:23:37;-2.80;99.90
54158;DHT22;40065;49.894;10.358;2022-12-18T16:28:39;-2.90;99.90
54158;DHT22;40065;49.894;10.358;2022-12-18T16:33:48;-3.10;99.90
54158;DHT22;40065;49.894;10.358;2022-12-18T16:38:50;-3.20;99.90
54158;DHT22;40065;49.894;10.358;2022-12-18T16:43:52;-3.30;99.90
54158;DHT22;40065;49.894;10.358;2022-12-18T16:48:57;-3.30;99.90
54158;DHT22;40065;49.894;10.358;2022-12-18T16:54:00;-3.30;99.90
54158;DHT22;40065;49.894;10.358;2022-12-18T16:59:11;-3.30;99.90
54158;DHT22;40065;49.894;10.358;2022-12-18T17:04:14;-3.20;99.90
54158;DHT22;40065;49.894;10.358;2022-12-18T17:09:17;-3.20;99.90
54158;DHT22;40065;49.894;10.358;2022-12-18T17:14:23;-3.40;99.90
54158;DHT22;40065;49.894;10.358;2022-12-18T17:19:26;-3.30;99.90
54158;DHT22;40065;49.894;10.358;2022-12-18T17:24:28;-3.30;99.90
54158;DHT22;40065;49.894;10.358;2022-12-18T17:29:35;-3.30;99.90
54158;DHT22;40065;49.894;10.358;2022-12-18T17:34:45;-3.20;99.90
54158;DHT22;40065;49.894;10.358;2022-12-18T17:39:47;-3.00;99.90
54158;DHT22;40065;49.894;10.358;2022-12-18T17:44:49;-2.90;99.90
54158;DHT22;40065;49.894;10.358;2022-12-18T17:49:51;-2.80;99.90
54158;DHT22;40065;49.894;10.358;2022-12-18T17:54:54;-2.70;99.90
54158;DHT22;40065;49.894;10.358;2022-12-18T17:59:55;-2.70;99.90
54158;DHT22;40065;49.894;10.358;2022-12-18T18:04:58;-2.60;99.90
54158;DHT22;40065;49.894;10.358;2022-12-18T18:09:59;-2.70;99.90
54158;DHT22;40065;49.894;10.358;2022-12-18T18:15:01;-2.60;99.90
54158;DHT22;40065;49.894;10.358;2022-12-18T18:20:04;-2.50;99.90
54158;DHT22;40065;49.894;10.358;2022-12-18T18:25:06;-2.50;99.90
54158;DHT22;40065;49.894;10.358;2022-12-18T18:30:11;-2.50;99.90
54158;DHT22;40065;49.894;10.358;2022-12-18T18:35:12;-2.30;99.90
54158;DHT22;40065;49.894;10.358;2022-12-18T18:40:34;-2.40;99.90
54158;DHT22;40065;49.894;10.358;2022-12-18T18:45:36;-2.40;99.90
54158;DHT22;40065;49.894;10.358;2022-12-18T18:50:40;-2.30;99.90
54158;DHT22;40065;49.894;10.358;2022-12-18T18:55:44;-2.40;99.90
54158;DHT22;40065;49.894;10.358;2022-12-18T19:01:03;-2.50;99.90
54158;DHT22;40065;49.894;10.358;2022-12-18T19:06:11;-2.60;99.90
54158;DHT22;40065;49.894;10.358;2022-12-18T19:11:15;-2.40;99.90
54158;DHT22;40065;49.894;10.358;2022-12-18T19:16:37;-2.30;99.90
54158;DHT22;40065;49.894;10.358;2022-12-18T19:21:40;-2.50;99.90
54158;DHT22;40065;49.894;10.358;2022-12-18T19:26:42;-2.50;99.90
54158;DHT22;40065;49.894;10.358;2022-12-18T19:31:44;-2.50;99.90
54158;DHT22;40065;49.894;10.358;2022-12-18T19:36:47;-2.60;99.90
54158;DHT22;40065;49.894;10.358;2022-12-18T19:41:49;-2.50;99.90
54158;DHT22;40065;49.894;10.358;2022-12-18T19:46:52;-2.60;99.90
54158;DHT22;40065;49.894;10.358;2022-12-18T19:51:54;-2.50;99.90
54158;DHT22;40065;49.894;10.358;2022-12-18T19:56:56;-2.50;99.90
54158;DHT22;40065;49.894;10.358;2022-12-18T20:01:59;-2.50;99.90
54158;DHT22;40065;49.894;10.358;2022-12-18T20:07:02;-2.40;99.90
54158;DHT22;40065;49.894;10.358;2022-12-18T20:12:04;-2.40;99.90
54158;DHT22;40065;49.894;10.358;2022-12-18T20:17:06;-2.40;99.90
54158;DHT22;40065;49.894;10.358;2022-12-18T20:22:08;-2.50;99.90
54158;DHT22;40065;49.894;10.358;2022-12-18T20:27:10;-2.40;99.90
54158;DHT22;40065;49.894;10.358;2022-12-18T20:32:18;-2.50;99.90
54158;DHT22;40065;49.894;10.358;2022-12-18T20:37:21;-2.50;99.90
54158;DHT22;40065;49.894;10.358;2022-12-18T20:42:24;-2.40;99.90
54158;DHT22;40065;49.894;10.358;2022-12-18T20:47:26;-2.40;99.90
54158;DHT22;40065;49.894;10.358;2022-12-18T20:52:28;-2.40;99.90
54158;DHT22;40065;49.894;10.358;2022-12-18T20:57:29;-2.40;99.90
54158;DHT22;40065;49.894;10.358;2022-12-18T21:02:31;-2.40;99.90
54158;DHT22;40065;49.894;10.358;2022-12-18T21:07:33;-2.40;99.90
54158;DHT22;40065;49.894;10.358;2022-12-18T21:12:35;-2.40;99.90
54158;DHT22;40065;49.894;10.358;2022-12-18T21:18:02;-2.30;99.90
54158;DHT22;40065;49.894;10.358;2022-12-18T21:23:04;-2.30;99.90
54158;DHT22;40065;49.894;10.358;2022-12-18T21:28:17;-2.30;99.90
54158;DHT22;40065;49.894;10.358;2022-12-18T21:33:19;-2.30;99.90
54158;DHT22;40065;49.894;10.358;2022-12-18T21:38:21;-2.30;99.90
54158;DHT22;40065;49.894;10.358;2022-12-18T21:43:22;-2.30;99.90
54158;DHT22;40065;49.894;10.358;2022-12-18T21:48:43;-2.20;99.90
54158;DHT22;40065;49.894;10.358;2022-12-18T21:53:45;-2.10;99.90
54158;DHT22;40065;49.894;10.358;2022-12-18T21:58:49;-2.00;99.90
54158;DHT22;40065;49.894;10.358;2022-12-18T22:03:57;-2.10;99.90
54158;DHT22;40065;49.894;10.358;2022-12-18T22:08:59;-2.00;99.90
54158;DHT22;40065;49.894;10.358;2022-12-18T22:14:01;-2.00;99.90
54158;DHT22;40065;49.894;10.358;2022-12-18T22:19:04;-1.90;99.90
54158;DHT22;40065;49.894;10.358;2022-12-18T22:24:13;-2.10;99.90
54158;DHT22;40065;49.894;10.358;2022-12-18T22:29:17;-2.20;99.90
54158;DHT22;40065;49.894;10.358;2022-12-18T22:34:38;-2.00;99.90
54158;DHT22;40065;49.894;10.358;2022-12-18T22:39:40;-2.10;99.90
54158;DHT22;40065;49.894;10.358;2022-12-18T22:44:42;-1.90;99.90
54158;DHT22;40065;49.894;10.358;2022-12-18T22:49:44;-1.90;99.90
54158;DHT22;40065;49.894;10.358;2022-12-18T22:54:45;-2.00;99.90
54158;DHT22;40065;49.894;10.358;2022-12-18T22:59:48;-2.00;99.90
54158;DHT22;40065;49.894;10.358;2022-12-18T23:04:50;-1.80;99.90
54158;DHT22;40065;49.894;10.358;2022-12-18T23:09:52;-1.70;99.90
54158;DHT22;40065;49.894;10.358;2022-12-18T23:15:01;-1.80;99.90
54158;DHT22;40065;49.894;10.358;2022-12-18T23:20:03;-1.70;99.90
54158;DHT22;40065;49.894;10.358;2022-12-18T23:25:09;-1.80;99.90
54158;DHT22;40065;49.894;10.358;2022-12-18T23:30:11;-1.90;99.90
54158;DHT22;40065;49.894;10.358;2022-12-18T23:35:13;-2.00;99.90
54158;DHT22;40065;49.894;10.358;2022-12-18T23:40:16;-1.90;99.90
54158;DHT22;40065;49.894;10.358;2022-12-18T23:45:18;-1.90;99.90
54158;DHT22;40065;49.894;10.358;2022-12-18T23:50:20;-2.00;99.90
54158;DHT22;40065;49.894;10.358;2022-12-18T23:55:30;-1.90;99.90
